Time;durP1;ratioP1;P1;durP2;ratioP2;P2;SDS_P1;SDS_P2;PMS_P1;PMS_P2;Temp;Humidity;BMP_temperature;BMP_pressure;BME280_temperature;BME280_humidity;BME280_pressure;Samples;Min_cycle;Max_cycle;Signal;HPM_P1;HPM_P2
2021/06/03 00:02:13;;;;;;;21.07;16.37;;;;;;;10.67;64.47;99675.52;124997;1102;64332;-85
2021/06/03 00:04:41;;;;;;;21.77;16.80;;;;;;;10.61;64.54;99675.87;124936;1101;64434;-85
2021/06/03 00:07:11;;;;;;;19.87;16.27;;;;;;;10.59;64.36;99668.90;125056;1096;64425;-87
2021/06/03 00:09:39;;;;;;;18.63;15.60;;;;;;;10.57;64.64;99676.12;124924;1101;64267;-87
2021/06/03 00:12:08;;;;;;;22.20;15.63;;;;;;;10.53;64.72;99673.63;124857;1101;64361;-89
2021/06/03 00:14:37;;;;;;;18.53;16.58;;;;;;;10.53;64.87;99670.97;125052;1101;64246;-88
2021/06/03 00:17:05;;;;;;;20.17;16.80;;;;;;;10.55;64.89;99669.05;125046;1101;64427;-87
2021/06/03 00:19:32;;;;;;;22.70;17.20;;;;;;;10.53;65.14;99673.63;125155;1101;64358;-86
2021/06/03 00:21:59;;;;;;;23.03;19.40;;;;;;;10.53;65.62;99667.41;125041;1096;64333;-86
2021/06/03 00:24:27;;;;;;;24.07;17.97;;;;;;;10.52;65.23;99674.55;125386;1096;64413;-87
2021/06/03 00:26:54;;;;;;;21.87;17.23;;;;;;;10.49;65.52;99671.21;125114;1101;64242;-88
2021/06/03 00:29:21;;;;;;;25.67;18.70;;;;;;;10.47;65.48;99668.62;124897;1101;64422;-88
2021/06/03 00:31:49;;;;;;;22.97;17.53;;;;;;;10.45;65.39;99667.87;125259;1096;64478;-87
2021/06/03 00:34:16;;;;;;;25.07;17.80;;;;;;;10.44;65.68;99673.27;125079;1101;64317;-88
2021/06/03 00:36:43;;;;;;;24.37;16.87;;;;;;;10.39;65.86;99672.66;125241;1101;64396;-87
2021/06/03 00:39:10;;;;;;;21.77;17.27;;;;;;;10.37;65.69;99680.73;125312;1101;64308;-87
2021/06/03 00:41:38;;;;;;;23.33;17.40;;;;;;;10.35;65.92;99674.65;125285;1101;64361;-87
2021/06/03 00:44:05;;;;;;;22.57;18.60;;;;;;;10.29;66.10;99681.18;125249;1101;64484;-87
2021/06/03 00:46:33;;;;;;;26.95;19.05;;;;;;;10.25;66.22;99681.39;125215;1101;64410;-87
2021/06/03 00:49:02;;;;;;;25.27;19.17;;;;;;;10.20;66.58;99683.44;125171;1101;64422;-87
2021/06/03 00:51:29;;;;;;;25.97;20.37;;;;;;;10.15;66.70;99678.35;125367;1096;64328;-87
2021/06/03 00:53:57;;;;;;;25.23;20.27;;;;;;;10.08;66.94;99684.95;125463;1101;64408;-88
2021/06/03 00:56:24;;;;;;;24.70;22.00;;;;;;;10.03;66.91;99676.34;125523;1096;64530;-87
2021/06/03 00:58:51;;;;;;;27.73;21.77;;;;;;;9.99;67.08;99682.80;125558;1101;64233;-87
2021/06/03 01:01:19;;;;;;;26.37;20.03;;;;;;;9.96;67.58;99683.81;125631;1101;64374;-86
2021/06/03 01:03:46;;;;;;;25.35;20.05;;;;;;;9.94;67.78;99680.37;125740;1101;64399;-87
2021/06/03 01:06:14;;;;;;;26.10;18.67;;;;;;;9.93;68.07;99683.98;125694;1101;64259;-87
2021/06/03 01:08:55;;;;;;;26.47;20.20;;;;;;;9.93;68.30;99683.13;125730;1101;64255;-87
2021/06/03 01:11:33;;;;;;;27.25;21.25;;;;;;;9.96;68.60;99678.49;125661;1101;64252;-87
2021/06/03 01:14:07;;;;;;;25.17;20.07;;;;;;;9.98;68.89;99673.06;125691;1096;64275;-87
2021/06/03 01:16:36;;;;;;;24.87;20.83;;;;;;;9.99;69.34;99670.34;125625;1101;64722;-87
2021/06/03 01:19:10;;;;;;;28.17;20.97;;;;;;;9.99;70.51;99680.13;125606;1101;64336;-86
2021/06/03 01:21:57;;;;;;;27.35;19.65;;;;;;;9.96;69.50;99675.83;125684;1096;64428;-88
2021/06/03 01:24:32;;;;;;;26.87;21.10;;;;;;;9.95;69.58;99690.06;125464;1096;64384;-87
2021/06/03 01:27:07;;;;;;;24.65;20.75;;;;;;;9.92;69.81;99679.58;125353;1101;64419;-87
2021/06/03 01:29:57;;;;;;;25.77;19.67;;;;;;;9.89;69.85;99674.42;125617;1101;64699;-86
2021/06/03 01:32:29;;;;;;;23.27;18.70;;;;;;;9.87;70.01;99677.19;125584;1095;64278;-88
2021/06/03 01:34:57;;;;;;;23.87;18.87;;;;;;;9.89;70.11;99679.75;125464;1101;64237;-87
2021/06/03 01:37:25;;;;;;;28.70;20.47;;;;;;;9.88;70.39;99681.56;125358;1101;64319;-87
2021/06/03 01:39:54;;;;;;;28.17;22.10;;;;;;;9.87;70.31;99684.29;125358;1101;64339;-87
2021/06/03 01:42:21;;;;;;;28.13;21.53;;;;;;;9.84;70.25;99681.80;124902;1101;64332;-88
2021/06/03 01:44:49;;;;;;;30.47;21.70;;;;;;;9.78;70.20;99680.32;125083;1101;64435;-87
2021/06/03 01:47:17;;;;;;;26.67;21.27;;;;;;;9.75;70.28;99677.83;125101;1101;64456;-87
2021/06/03 01:49:44;;;;;;;24.13;20.53;;;;;;;9.70;70.62;99684.34;125140;1101;64342;-87
2021/06/03 01:52:12;;;;;;;24.60;20.40;;;;;;;9.65;70.59;99685.42;125219;1101;64330;-88
2021/06/03 01:54:41;;;;;;;23.53;20.67;;;;;;;9.63;70.82;99689.10;124948;1101;64300;-88
2021/06/03 01:57:09;;;;;;;27.10;20.80;;;;;;;9.60;70.74;99687.46;125274;1096;64386;-88
2021/06/03 01:59:37;;;;;;;27.07;21.53;;;;;;;9.58;70.96;99686.67;125091;1101;64403;-88
2021/06/03 02:02:05;;;;;;;27.43;20.93;;;;;;;9.57;71.79;99697.41;125116;1101;64280;-87
2021/06/03 02:04:33;;;;;;;26.73;22.03;;;;;;;9.53;71.50;99701.16;125129;1101;64338;-88
2021/06/03 02:07:00;;;;;;;24.27;20.90;;;;;;;9.49;71.56;99695.14;125097;1101;64338;-87
2021/06/03 02:09:27;;;;;;;24.27;21.43;;;;;;;9.44;71.43;99698.03;125126;1095;64547;-87
2021/06/03 02:11:56;;;;;;;23.57;20.87;;;;;;;9.40;71.63;99700.92;125145;1101;64466;-87
2021/06/03 02:14:28;;;;;;;25.07;20.57;;;;;;;9.38;71.85;99703.67;125092;1101;64326;-87
2021/06/03 02:17:19;;;;;;;28.43;21.30;;;;;;;9.34;71.88;99702.09;124967;1101;64361;-87
2021/06/03 02:20:07;;;;;;;22.97;20.57;;;;;;;9.32;71.91;99711.98;124961;1101;64364;-87
2021/06/03 02:22:37;;;;;;;24.43;19.80;;;;;;;9.30;72.34;99710.33;125003;1096;64313;-86
2021/06/03 02:25:06;;;;;;;23.88;20.85;;;;;;;9.30;72.32;99702.34;124924;1096;64728;-86
2021/06/03 02:27:34;;;;;;;27.90;22.10;;;;;;;9.27;72.41;99706.02;124916;1101;64323;-87
2021/06/03 02:30:07;;;;;;;26.93;22.77;;;;;;;9.25;72.44;99707.04;125030;1101;64731;-86
2021/06/03 02:32:35;;;;;;;27.27;22.63;;;;;;;9.23;72.57;99705.30;125130;1096;64361;-88
2021/06/03 02:35:10;;;;;;;28.90;22.70;;;;;;;9.19;72.66;99705.55;125077;1096;64467;-87
2021/06/03 02:37:39;;;;;;;29.35;21.70;;;;;;;9.16;72.52;99705.67;125091;1096;64464;-85
2021/06/03 02:40:10;;;;;;;26.23;19.93;;;;;;;9.15;72.78;99715.45;125099;1096;64429;-87
2021/06/03 02:42:43;;;;;;;23.30;20.80;;;;;;;9.13;72.80;99714.66;125224;1101;64390;-88
2021/06/03 02:45:14;;;;;;;28.60;21.47;;;;;;;9.15;72.83;99717.27;125097;1101;64312;-88
2021/06/03 02:47:41;;;;;;;26.10;22.20;;;;;;;9.17;73.00;99715.39;125101;1096;63209;-88
2021/06/03 02:50:11;;;;;;;25.27;20.80;;;;;;;9.19;72.90;99717.05;125117;1096;64394;-88
2021/06/03 02:52:40;;;;;;;26.03;20.90;;;;;;;9.21;73.07;99712.48;125059;1096;64363;-86
2021/06/03 02:55:13;;;;;;;29.03;22.80;;;;;;;9.27;72.95;99719.32;125307;1096;64483;-87
2021/06/03 02:57:41;;;;;;;31.37;23.10;;;;;;;9.29;72.99;99719.23;125160;1101;64459;-88
2021/06/03 03:00:20;;;;;;;24.20;21.23;;;;;;;9.33;72.87;99728.79;125014;1101;64303;-87
2021/06/03 03:02:48;;;;;;;28.33;19.73;;;;;;;9.34;72.73;99718.05;124972;1101;64332;-86
2021/06/03 03:05:16;;;;;;;20.33;18.00;;;;;;;9.38;72.65;99721.44;125197;1096;64323;-87
2021/06/03 03:07:43;;;;;;;20.20;17.57;;;;;;;9.43;72.50;99722.92;125041;1096;64383;-87
2021/06/03 03:10:16;;;;;;;24.37;18.40;;;;;;;9.52;72.45;99734.04;125018;1096;64396;-87
2021/06/03 03:12:43;;;;;;;23.30;18.37;;;;;;;9.60;72.41;99727.38;124799;1101;64524;-87
2021/06/03 03:15:13;;;;;;;25.43;20.43;;;;;;;9.68;72.22;99727.84;125132;1096;64339;-87
2021/06/03 03:17:41;;;;;;;22.80;20.33;;;;;;;9.78;72.03;99725.58;125306;1101;64329;-87
2021/06/03 03:20:13;;;;;;;23.83;19.20;;;;;;;9.87;71.96;99732.21;125267;1096;64329;-87
2021/06/03 03:22:41;;;;;;;22.10;18.63;;;;;;;10.14;71.72;99734.36;125158;1101;64320;-87
2021/06/03 03:25:11;;;;;;;21.93;17.40;;;;;;;10.88;70.72;99729.43;125181;1101;64459;-87
2021/06/03 03:27:40;;;;;;;21.97;16.37;;;;;;;11.79;69.29;99724.99;125189;1096;64403;-87
2021/06/03 03:30:09;;;;;;;20.70;16.07;;;;;;;12.46;68.17;99719.17;125186;1096;64246;-88
2021/06/03 03:32:37;;;;;;;19.50;16.67;;;;;;;13.22;66.88;99723.17;125101;1096;64280;-88
2021/06/03 03:35:08;;;;;;;16.83;15.13;;;;;;;14.00;65.21;99724.13;125241;1101;64330;-87
2021/06/03 03:37:38;;;;;;;17.07;15.30;;;;;;;14.71;63.69;99713.78;125314;1101;64449;-87
2021/06/03 03:40:09;;;;;;;16.53;14.83;;;;;;;15.28;63.03;99707.78;125003;1101;64271;-87
2021/06/03 03:42:37;;;;;;;15.67;13.67;;;;;;;15.89;61.36;99709.48;125124;1101;64329;-88
2021/06/03 03:45:07;;;;;;;16.20;14.63;;;;;;;16.23;60.52;99710.39;125157;1101;64462;-86
2021/06/03 03:47:35;;;;;;;14.97;13.40;;;;;;;16.62;58.76;99714.42;124999;1101;64336;-88
2021/06/03 03:50:05;;;;;;;15.53;13.87;;;;;;;16.87;58.06;99716.00;124859;1094;64473;-87
2021/06/03 03:52:32;;;;;;;15.20;13.70;;;;;;;17.09;57.70;99714.27;125041;1101;64336;-87
2021/06/03 03:55:00;;;;;;;17.70;13.73;;;;;;;17.53;56.63;99718.61;124896;1102;64389;-87
2021/06/03 03:57:29;;;;;;;15.30;13.80;;;;;;;18.08;55.70;99714.91;125194;1095;64336;-87
2021/06/03 03:59:56;;;;;;;15.17;13.60;;;;;;;18.46;54.49;99713.39;125162;1096;64435;-86
2021/06/03 04:02:23;;;;;;;15.90;14.40;;;;;;;18.53;54.07;99710.02;125203;1096;64431;-86
2021/06/03 04:05:12;;;;;;;17.10;14.47;;;;;;;18.83;53.57;99714.58;125085;1096;64350;-86
2021/06/03 04:07:40;;;;;;;15.75;14.10;;;;;;;19.21;52.46;99714.79;125190;1096;64357;-87
2021/06/03 04:10:12;;;;;;;15.95;14.30;;;;;;;19.51;51.48;99706.57;125142;1101;64336;-87
2021/06/03 04:12:39;;;;;;;15.65;14.15;;;;;;;19.70;50.46;99710.30;125231;1101;64336;-87
2021/06/03 04:15:09;;;;;;;16.63;14.80;;;;;;;19.74;50.45;99709.84;125237;1094;64381;-87
2021/06/03 04:17:36;;;;;;;;;;;;;;;19.70;50.04;99705.73;125308;1101;64335;-87
2021/06/03 04:20:08;;;;;;;15.10;13.37;;;;;;;19.76;49.28;99708.86;125268;1101;64345;-87
2021/06/03 04:22:35;;;;;;;18.13;14.07;;;;;;;19.72;49.07;99719.09;125240;1101;64275;-87
2021/06/03 04:25:05;;;;;;;15.33;13.83;;;;;;;19.88;48.24;99708.56;125199;1102;64332;-86
2021/06/03 04:27:33;;;;;;;15.20;13.33;;;;;;;19.80;47.56;99716.55;125231;1096;64381;-86
2021/06/03 04:30:01;;;;;;;14.47;13.03;;;;;;;19.61;47.97;99716.52;125097;1101;64435;-87
2021/06/03 04:32:28;;;;;;;18.23;12.70;;;;;;;19.57;47.27;99718.66;124794;1096;64357;-87
2021/06/03 04:34:56;;;;;;;13.13;11.73;;;;;;;19.56;47.50;99722.34;125120;1101;64347;-88
2021/06/03 04:37:24;;;;;;;12.97;11.70;;;;;;;19.48;47.17;99727.61;125132;1101;64361;-88
2021/06/03 04:39:52;;;;;;;13.63;11.97;;;;;;;19.39;46.51;99726.61;125379;1101;64246;-87
2021/06/03 04:42:20;;;;;;;13.30;12.07;;;;;;;19.34;46.37;99723.48;125316;1101;64390;-88
2021/06/03 04:44:48;;;;;;;15.13;11.77;;;;;;;19.41;46.35;99716.52;125117;1101;64370;-88
2021/06/03 04:47:15;;;;;;;12.80;11.50;;;;;;;19.51;46.03;99727.34;125190;1101;64264;-87
2021/06/03 04:49:42;;;;;;;12.23;10.97;;;;;;;19.70;45.56;99721.95;125207;1096;63677;-88
2021/06/03 04:52:25;;;;;;;12.87;11.30;;;;;;;19.85;46.12;99726.91;125269;1096;64336;-85
2021/06/03 04:55:07;;;;;;;13.17;11.77;;;;;;;20.29;45.01;99724.55;125175;1096;64355;-85
2021/06/03 04:57:35;;;;;;;12.90;11.63;;;;;;;20.57;45.08;99718.22;124920;1096;64381;-87
2021/06/03 05:00:16;;;;;;;12.80;11.60;;;;;;;20.99;44.78;99727.71;125291;1101;64278;-86
2021/06/03 05:02:45;;;;;;;21.87;12.33;;;;;;;21.35;43.91;99723.17;125300;1101;64354;-87
2021/06/03 05:05:33;;;;;;;23.33;13.80;;;;;;;21.38;43.41;99731.05;125260;1102;64345;-87
2021/06/03 05:08:01;;;;;;;12.70;11.30;;;;;;;21.36;42.88;99726.76;125318;1096;64249;-87
2021/06/03 05:10:29;;;;;;;12.63;11.40;;;;;;;21.40;42.59;99736.30;125401;1101;64399;-86
2021/06/03 05:12:58;;;;;;;12.40;11.20;;;;;;;21.32;42.46;99731.61;125292;1101;64393;-87
2021/06/03 05:15:26;;;;;;;13.17;11.77;;;;;;;21.21;42.50;99735.41;125213;1096;64326;-87
2021/06/03 05:17:55;;;;;;;13.15;11.40;;;;;;;21.30;43.01;99741.78;125063;1096;64393;-88
2021/06/03 05:20:25;;;;;;;12.70;11.53;;;;;;;21.42;42.47;99745.99;125243;1096;64334;-88
2021/06/03 05:23:00;;;;;;;12.53;11.07;;;;;;;21.37;42.48;99739.30;125316;1096;64370;-86
2021/06/03 05:25:31;;;;;;;11.00;9.97;;;;;;;21.29;41.32;99736.50;125291;1096;64300;-85
2021/06/03 05:27:58;;;;;;;10.37;9.37;;;;;;;21.23;40.68;99746.95;125427;1101;64355;-88
2021/06/03 05:30:26;;;;;;;11.73;10.63;;;;;;;21.10;41.44;99745.63;125149;1101;64486;-87
2021/06/03 05:32:56;;;;;;;11.80;10.70;;;;;;;21.12;41.50;99741.75;125284;1101;64377;-86
2021/06/03 05:35:25;;;;;;;11.33;10.23;;;;;;;21.26;41.79;99753.93;125232;1101;64329;-87
2021/06/03 05:37:52;;;;;;;12.15;10.88;;;;;;;21.64;42.20;99754.67;125339;1096;64329;-86
2021/06/03 05:40:22;;;;;;;12.83;11.07;;;;;;;21.99;41.88;99742.95;125345;1101;64310;-88
2021/06/03 05:42:51;;;;;;;12.27;11.07;;;;;;;22.26;41.63;99750.13;125231;1101;64387;-87
2021/06/03 05:45:20;;;;;;;11.23;9.15;;;;;;;22.40;40.26;99747.84;125294;1096;64384;-87
2021/06/03 05:47:49;;;;;;;10.03;8.68;;;;;;;22.32;40.46;99751.35;125336;1101;64358;-86
2021/06/03 05:50:20;;;;;;;10.27;9.17;;;;;;;22.25;40.77;99747.56;125269;1101;64393;-86
2021/06/03 05:52:48;;;;;;;9.90;8.77;;;;;;;22.28;40.38;99750.83;124922;1101;64316;-87
2021/06/03 05:55:16;;;;;;;9.73;8.73;;;;;;;22.19;39.03;99753.64;125157;1096;64254;-86
2021/06/03 05:57:43;;;;;;;11.00;9.90;;;;;;;22.12;39.26;99753.41;125093;1101;64457;-86
2021/06/03 06:00:14;;;;;;;10.93;9.93;;;;;;;22.30;39.94;99754.25;125031;1101;64480;-86
2021/06/03 06:02:46;;;;;;;10.70;9.10;;;;;;;22.61;39.85;99755.60;125160;1101;64345;-88
2021/06/03 06:08:04;;;;;;;9.30;8.48;;;;;;;22.90;38.77;99750.64;124990;1101;64326;-86
2021/06/03 06:10:32;;;;;;;8.70;7.87;;;;;;;22.85;38.62;99746.71;125005;1101;64348;-86
2021/06/03 06:13:00;;;;;;;12.13;9.13;;;;;;;22.89;38.24;99756.26;125189;1096;64431;-87
2021/06/03 06:15:28;;;;;;;10.75;8.30;;;;;;;22.93;38.63;99753.06;125186;1096;64399;-88
2021/06/03 06:17:56;;;;;;;9.13;7.23;;;;;;;22.96;38.40;99752.77;125191;1101;64320;-87
2021/06/03 06:20:23;;;;;;;8.30;7.43;;;;;;;22.95;37.81;99759.16;125172;1096;64422;-87
2021/06/03 06:22:52;;;;;;;8.33;7.47;;;;;;;22.93;37.89;99758.50;125247;1101;64396;-87
2021/06/03 06:25:20;;;;;;;8.40;7.63;;;;;;;22.91;37.37;99762.39;125224;1096;64384;-86
2021/06/03 06:27:48;;;;;;;9.20;8.03;;;;;;;22.90;38.13;99769.67;125292;1096;64339;-87
2021/06/03 06:30:16;;;;;;;9.17;7.40;;;;;;;22.96;37.46;99762.72;124972;1103;64336;-85
2021/06/03 06:32:43;;;;;;;7.30;6.70;;;;;;;22.93;37.50;99774.80;125085;1101;64306;-87
2021/06/03 06:35:12;;;;;;;7.10;6.37;;;;;;;22.76;37.47;99767.58;125137;1101;64382;-87
2021/06/03 06:37:40;;;;;;;6.70;6.10;;;;;;;22.89;37.94;99770.70;125243;1101;64337;-87
2021/06/03 06:40:08;;;;;;;9.03;6.57;;;;;;;23.04;38.19;99773.69;125733;1096;64246;-87
2021/06/03 06:42:36;;;;;;;9.00;6.73;;;;;;;23.25;38.25;99773.26;126235;1101;64252;-87
2021/06/03 06:45:06;;;;;;;7.33;6.00;;;;;;;23.53;38.24;99778.41;125882;1101;64747;-87
2021/06/03 06:47:36;;;;;;;7.33;6.60;;;;;;;23.59;37.79;99775.02;126122;1096;64508;-87
2021/06/03 06:50:07;;;;;;;7.30;6.13;;;;;;;23.69;38.30;99769.42;125922;1101;64246;-86
2021/06/03 06:52:35;;;;;;;8.03;6.53;;;;;;;23.90;37.65;99777.97;125983;1096;64703;-85
2021/06/03 06:55:07;;;;;;;6.33;5.73;;;;;;;23.96;37.03;99771.88;125792;1101;64326;-86
2021/06/03 06:57:35;;;;;;;5.10;4.60;;;;;;;23.88;36.09;99782.73;125471;1101;64374;-86
2021/06/03 07:00:09;;;;;;;6.17;5.50;;;;;;;23.78;36.58;99777.47;125202;1096;64218;-87
2021/06/03 07:02:37;;;;;;;5.40;4.43;;;;;;;23.76;36.25;99779.50;125129;1096;64335;-87
2021/06/03 07:05:09;;;;;;;6.13;5.50;;;;;;;23.69;36.28;99781.16;125733;1101;64261;-86
2021/06/03 07:07:37;;;;;;;5.83;5.10;;;;;;;23.81;36.02;99784.45;125750;1101;64322;-86
2021/06/03 07:10:08;;;;;;;6.70;4.73;;;;;;;23.92;36.19;99784.11;125679;1096;64331;-86
2021/06/03 07:12:36;;;;;;;5.13;3.93;;;;;;;23.96;36.16;99790.05;125554;1101;64371;-87
2021/06/03 07:15:06;;;;;;;5.00;4.40;;;;;;;23.91;34.83;99785.14;125657;1096;64336;-88
2021/06/03 07:17:35;;;;;;;5.63;4.63;;;;;;;23.55;35.43;99795.43;125107;1096;64349;-88
2021/06/03 07:20:10;;;;;;;5.47;4.77;;;;;;;23.19;35.38;99785.62;125242;1101;64401;-86
2021/06/03 07:22:38;;;;;;;4.83;4.17;;;;;;;22.88;35.68;99785.31;125461;1096;64399;-87
2021/06/03 07:25:08;;;;;;;6.43;4.90;;;;;;;22.58;35.40;99790.23;125964;1096;64249;-85
2021/06/03 07:27:36;;;;;;;;;;;;;;;21.92;35.96;99791.56;125865;1101;64363;-86
2021/06/03 07:30:07;;;;;;;5.13;4.40;;;;;;;21.38;36.81;99793.42;125643;1096;64386;-87
2021/06/03 07:32:34;;;;;;;5.07;4.47;;;;;;;21.08;37.68;99791.83;126147;1096;64676;-87
2021/06/03 07:35:05;;;;;;;4.83;4.00;;;;;;;21.04;38.29;99790.45;125854;1101;64483;-87
2021/06/03 07:37:33;;;;;;;5.20;4.30;;;;;;;21.05;38.40;99787.56;125903;1096;64351;-88
2021/06/03 07:40:00;;;;;;;5.10;4.60;;;;;;;20.93;37.75;99785.20;125524;1096;64252;-87
2021/06/03 07:42:27;;;;;;;5.37;4.20;;;;;;;20.83;38.92;99782.56;126037;1101;64329;-87
2021/06/03 07:44:55;;;;;;;5.17;3.53;;;;;;;20.75;38.30;99785.16;125966;1101;64332;-86
2021/06/03 07:47:23;;;;;;;4.23;3.30;;;;;;;20.68;37.81;99779.47;125645;1096;64363;-87
2021/06/03 07:49:50;;;;;;;4.83;3.10;;;;;;;20.69;38.41;99791.15;125536;1096;64667;-87
2021/06/03 07:52:17;;;;;;;6.73;2.60;;;;;;;20.74;37.92;99786.98;125259;1095;64355;-87
2021/06/03 07:54:45;;;;;;;3.87;3.13;;;;;;;20.81;38.79;99782.70;125304;1095;64361;-86
2021/06/03 07:57:12;;;;;;;3.60;3.30;;;;;;;20.89;38.60;99784.66;125220;1096;64339;-85
2021/06/03 07:59:39;;;;;;;5.23;3.63;;;;;;;20.87;38.05;99785.81;125241;1101;64374;-85
2021/06/03 08:02:07;;;;;;;11.83;8.33;;;;;;;20.88;38.76;99782.09;125417;1101;64312;-86
2021/06/03 08:04:34;;;;;;;5.80;4.40;;;;;;;20.90;38.04;99780.94;125264;1101;64765;-85
2021/06/03 08:07:01;;;;;;;14.80;12.30;;;;;;;20.96;37.77;99787.64;125146;1101;64402;-86
2021/06/03 08:09:29;;;;;;;8.33;6.63;;;;;;;20.99;37.89;99785.47;125149;1096;64252;-86
2021/06/03 08:11:58;;;;;;;4.40;3.17;;;;;;;21.01;36.94;99788.89;125106;1101;64414;-84
2021/06/03 08:14:25;;;;;;;10.50;7.70;;;;;;;20.89;37.36;99783.81;125116;1101;64423;-85
2021/06/03 08:16:52;;;;;;;4.00;3.30;;;;;;;20.99;36.86;99784.63;125237;1101;64441;-84
2021/06/03 08:19:20;;;;;;;4.40;2.90;;;;;;;20.91;36.88;99787.23;125188;1101;64355;-85
2021/06/03 08:21:48;;;;;;;11.47;10.30;;;;;;;20.89;37.45;99781.10;125202;1101;64358;-86
2021/06/03 08:24:16;;;;;;;24.57;22.07;;;;;;;20.98;37.38;99783.74;125084;1101;64547;-85
2021/06/03 08:26:47;;;;;;;9.70;8.70;;;;;;;21.12;36.69;99781.56;125104;1096;64467;-85
2021/06/03 08:29:14;;;;;;;22.83;20.80;;;;;;;21.26;36.78;99783.75;125047;1101;64432;-85
2021/06/03 08:31:42;;;;;;;58.90;53.35;;;;;;;21.42;36.92;99789.38;125191;1096;64380;-86
2021/06/03 08:34:11;;;;;;;12.40;11.47;;;;;;;21.53;36.69;99788.30;125180;1101;64351;-84
2021/06/03 08:36:39;;;;;;;4.33;3.30;;;;;;;21.56;36.68;99785.28;125191;1096;64348;-85
2021/06/03 08:39:07;;;;;;;4.90;2.63;;;;;;;21.52;34.98;99789.33;125186;1096;64275;-85
2021/06/03 08:41:45;;;;;;;3.63;3.00;;;;;;;21.45;36.01;99796.36;125215;1096;64454;-86
2021/06/03 08:44:21;;;;;;;5.93;3.67;;;;;;;21.46;36.15;99789.95;125164;1101;64351;-85
2021/06/03 08:46:48;;;;;;;3.47;3.17;;;;;;;21.63;36.63;99793.67;125173;1101;64287;-87
2021/06/03 08:49:15;;;;;;;3.97;3.33;;;;;;;21.76;36.29;99787.87;125134;1096;64307;-86
2021/06/03 08:51:43;;;;;;;4.30;2.70;;;;;;;21.80;34.85;99797.39;125148;1101;64428;-89
2021/06/03 08:54:10;;;;;;;11.33;3.10;;;;;;;21.84;34.87;99786.08;125085;1101;64785;-87
2021/06/03 08:56:37;;;;;;;3.50;3.00;;;;;;;21.86;35.04;99785.92;125144;1101;64323;-88
2021/06/03 08:59:05;;;;;;;2.93;2.63;;;;;;;21.88;35.38;99792.91;125121;1101;64329;-85
2021/06/03 09:01:33;;;;;;;3.25;2.15;;;;;;;21.84;34.36;99793.37;125027;1101;64770;-85
2021/06/03 09:04:00;;;;;;;2.80;2.20;;;;;;;21.73;33.84;99797.17;124994;1096;64330;-85
2021/06/03 09:06:27;;;;;;;2.53;2.20;;;;;;;21.58;33.20;99785.14;124941;1101;64322;-83
2021/06/03 09:08:59;;;;;;;3.70;2.65;;;;;;;21.55;35.19;99789.02;125112;1101;64374;-84
2021/06/03 09:11:28;;;;;;;4.33;2.73;;;;;;;21.69;34.53;99783.03;124976;1096;64329;-83
2021/06/03 09:13:58;;;;;;;2.30;2.08;;;;;;;21.82;32.66;99787.23;124876;1101;64399;-85
2021/06/03 09:16:28;;;;;;;5.10;2.50;;;;;;;21.94;34.08;99790.58;124976;1101;64344;-85
2021/06/03 09:19:10;;;;;;;3.53;2.53;;;;;;;22.09;33.46;99789.86;125032;1101;64364;-84
2021/06/03 09:21:44;;;;;;;2.30;2.00;;;;;;;22.16;32.68;99798.22;125067;1101;64246;-85
2021/06/03 09:24:15;;;;;;;3.97;2.20;;;;;;;22.01;32.12;99795.23;125113;1101;64332;-86
2021/06/03 09:26:45;;;;;;;2.33;2.13;;;;;;;21.85;32.85;99787.80;124905;1101;64383;-87
2021/06/03 09:29:19;;;;;;;10.10;3.15;;;;;;;21.84;32.28;99785.23;125063;1096;64275;-87
2021/06/03 09:31:47;;;;;;;2.03;1.90;;;;;;;21.84;32.63;99788.78;125099;1101;64334;-86
2021/06/03 09:34:20;;;;;;;2.20;2.00;;;;;;;21.88;32.08;99778.46;125101;1096;64357;-85
2021/06/03 09:36:50;;;;;;;3.50;2.63;;;;;;;22.02;32.12;99779.79;125075;1096;64361;-86
2021/06/03 09:39:45;;;;;;;2.07;1.87;;;;;;;22.21;31.56;99781.49;125092;1096;64275;-86
2021/06/03 09:42:19;;;;;;;3.80;2.57;;;;;;;22.34;32.03;99779.21;125130;1101;64396;-86
2021/06/03 09:44:53;;;;;;;3.17;2.10;;;;;;;22.40;32.92;99772.28;125188;1101;64252;-86
2021/06/03 09:47:22;;;;;;;3.20;2.57;;;;;;;22.51;32.59;99781.03;125150;1101;64462;-87
2021/06/03 09:49:52;;;;;;;2.38;2.10;;;;;;;22.47;31.54;99768.77;125087;1096;64214;-87
2021/06/03 09:52:23;;;;;;;2.67;2.47;;;;;;;22.40;32.27;99773.13;125129;1096;64336;-86
2021/06/03 09:54:56;;;;;;;3.07;2.07;;;;;;;22.54;32.99;99769.00;125295;1096;64428;-87
2021/06/03 09:57:38;;;;;;;2.20;2.00;;;;;;;22.63;31.40;99778.88;125116;1101;64303;-87
2021/06/03 10:00:19;;;;;;;3.53;2.20;;;;;;;22.51;31.36;99767.45;124917;1103;64416;-86
2021/06/03 10:02:53;;;;;;;4.27;2.30;;;;;;;22.49;31.36;99768.63;125145;1096;64281;-87
2021/06/03 10:05:22;;;;;;;1.90;1.80;;;;;;;22.50;31.01;99763.02;125158;1101;64406;-87
2021/06/03 10:08:05;;;;;;;3.18;2.25;;;;;;;22.59;31.47;99769.33;125218;1096;64399;-87
2021/06/03 10:10:36;;;;;;;5.53;2.50;;;;;;;22.69;32.24;99770.08;125182;1101;64249;-87
2021/06/03 10:13:08;;;;;;;2.20;2.00;;;;;;;22.83;31.31;99770.48;125147;1101;64435;-87
2021/06/03 10:15:38;;;;;;;3.90;2.17;;;;;;;22.76;30.56;99771.14;125104;1096;64326;-87
2021/06/03 10:18:14;;;;;;;2.63;2.33;;;;;;;22.62;30.72;99771.76;125178;1101;64460;-87
2021/06/03 10:20:45;;;;;;;2.40;2.20;;;;;;;22.59;30.72;99772.05;125122;1101;64421;-86
2021/06/03 10:23:14;;;;;;;3.17;2.27;;;;;;;22.61;31.26;99763.75;124884;1096;64364;-86
2021/06/03 10:25:43;;;;;;;3.97;3.60;;;;;;;22.72;31.59;99769.78;125141;1101;64381;-86
2021/06/03 10:28:16;;;;;;;2.80;2.57;;;;;;;22.78;31.92;99762.84;125032;1101;64278;-84
2021/06/03 10:30:51;;;;;;;4.25;2.40;;;;;;;22.94;31.49;99757.47;124970;1096;64345;-83
2021/06/03 10:33:25;;;;;;;5.60;3.47;;;;;;;23.02;31.34;99753.97;125010;1096;64299;-84
2021/06/03 10:35:56;;;;;;;5.07;2.60;;;;;;;23.07;31.53;99757.05;125021;1096;64335;-85
2021/06/03 10:38:24;;;;;;;6.80;2.80;;;;;;;23.18;30.57;99762.17;125087;1096;64363;-84
2021/06/03 10:40:54;;;;;;;4.30;2.50;;;;;;;23.04;30.38;99768.25;125092;1095;64323;-84
2021/06/03 10:43:23;;;;;;;2.43;2.20;;;;;;;22.94;30.45;99757.47;124688;1101;64958;-84
2021/06/03 10:45:50;;;;;;;4.90;2.43;;;;;;;23.09;31.35;99755.02;124968;1101;64378;-84
2021/06/03 10:48:17;;;;;;;3.27;2.53;;;;;;;23.23;30.77;99764.41;125121;1101;64252;-82
2021/06/03 10:50:49;;;;;;;3.23;2.40;;;;;;;23.10;30.73;99758.58;125015;1096;64338;-83
2021/06/03 10:53:21;;;;;;;3.30;2.33;;;;;;;23.05;30.17;99752.78;124696;1102;64393;-84
2021/06/03 10:55:51;;;;;;;2.50;2.30;;;;;;;22.91;30.11;99748.80;124925;1101;64474;-83
2021/06/03 10:58:32;;;;;;;2.35;2.15;;;;;;;22.88;30.64;99755.41;125038;1101;64367;-83
2021/06/03 11:01:04;;;;;;;2.53;2.33;;;;;;;22.99;31.02;99749.70;125034;1101;64323;-83
2021/06/03 11:03:46;;;;;;;3.43;2.67;;;;;;;22.93;30.38;99752.18;125033;1101;64304;-84
2021/06/03 11:06:17;;;;;;;2.87;2.30;;;;;;;22.87;30.74;99747.41;124908;1096;64278;-85
2021/06/03 11:08:57;;;;;;;2.80;2.37;;;;;;;22.93;30.68;99741.30;125687;1101;64400;-85
2021/06/03 11:11:24;;;;;;;3.23;2.27;;;;;;;22.89;30.92;99737.23;125675;1096;64318;-84
2021/06/03 11:13:52;;;;;;;4.47;2.50;;;;;;;22.94;30.56;99735.72;125768;1096;64427;-83
2021/06/03 11:16:53;;;;;;;4.67;2.73;;;;;;;23.04;31.10;99735.63;125591;1096;64355;-83
2021/06/03 11:19:22;;;;;;;5.30;2.63;;;;;;;23.19;31.14;99735.83;125737;1101;64307;-84
2021/06/03 11:21:52;;;;;;;4.83;2.30;;;;;;;23.31;31.40;99728.22;125522;1096;64329;-84
2021/06/03 11:24:33;;;;;;;2.80;2.60;;;;;;;23.42;30.90;99728.73;125715;1101;64525;-83
2021/06/03 11:27:07;;;;;;;2.97;2.33;;;;;;;23.45;30.58;99722.11;125542;1101;64336;-84
2021/06/03 11:29:50;;;;;;;4.10;2.40;;;;;;;23.43;29.91;99718.70;125490;1096;64334;-84
2021/06/03 11:32:24;;;;;;;2.33;2.20;;;;;;;23.45;30.87;99724.83;125338;1096;64360;-84
2021/06/03 11:34:56;;;;;;;2.10;1.90;;;;;;;23.45;29.59;99719.39;125403;1096;64371;-83
2021/06/03 11:37:39;;;;;;;2.73;2.53;;;;;;;23.37;29.74;99722.95;125027;1101;64335;-83